createdAt,value
2019-04-22T15:21:09.240Z,1.70
2019-04-22T15:23:38.293Z,1.50
2019-04-22T15:26:06.511Z,1.57
2019-04-22T15:28:35.432Z,1.42
2019-04-22T15:31:03.621Z,1.60
2019-04-22T15:33:31.094Z,1.67
2019-04-22T15:35:59.056Z,1.87
2019-04-22T15:38:28.072Z,1.60
2019-04-22T15:40:56.653Z,1.57
2019-04-22T15:43:27.381Z,1.90
2019-04-22T15:45:54.744Z,1.80
2019-04-22T15:48:23.209Z,1.80
2019-04-22T15:50:50.815Z,1.87
2019-04-22T15:53:18.155Z,2.10
2019-04-22T15:55:46.962Z,2.05
2019-04-22T15:58:17.492Z,1.77
2019-04-22T16:00:57.541Z,2.30
2019-04-22T16:12:33.584Z,2.25
2019-04-22T16:14:58.695Z,1.80
2019-04-22T16:17:26.437Z,2.30
2019-04-22T16:19:55.278Z,1.82
2019-04-22T16:22:24.937Z,1.80
2019-04-22T16:25:20.554Z,1.80
2019-04-22T16:27:48.208Z,1.87
2019-04-22T16:30:17.247Z,1.70
2019-04-22T16:32:47.813Z,2.10
2019-04-22T16:35:16.686Z,1.67
2019-04-22T16:37:44.168Z,1.85
2019-04-22T16:40:12.604Z,1.92
2019-04-22T16:42:49.115Z,1.90
2019-04-22T16:45:09.846Z,1.80
2019-04-22T16:47:37.478Z,1.90
2019-04-22T16:50:05.734Z,1.75
2019-04-22T16:52:34.262Z,1.82
2019-04-22T16:55:03.323Z,1.85
2019-04-22T16:57:31.009Z,1.82
2019-04-22T16:59:58.519Z,1.50
2019-04-22T17:02:52.626Z,1.60
2019-04-22T17:05:51.923Z,1.57
2019-04-22T17:08:20.824Z,1.50
2019-04-22T17:10:49.559Z,1.50
2019-04-22T17:13:21.265Z,1.60
2019-04-22T17:15:47.261Z,1.70
2019-04-22T17:18:15.114Z,1.87
2019-04-22T17:20:42.605Z,1.60
2019-04-22T17:23:09.939Z,1.60
2019-04-22T17:25:38.448Z,1.82
2019-04-22T17:28:05.905Z,1.65
2019-04-22T17:30:39.560Z,1.60
2019-04-22T17:33:08.820Z,1.37
2019-04-22T17:35:36.186Z,1.75
2019-04-22T17:44:23.838Z,1.47
2019-04-22T17:46:40.205Z,1.80
2019-04-22T17:49:50.459Z,1.41
2019-04-22T17:52:30.386Z,1.47
2019-04-22T17:54:48.181Z,1.52
2019-04-22T17:57:15.653Z,1.52
2019-04-22T17:59:46.597Z,1.60
2019-04-22T18:02:13.049Z,1.65
2019-04-22T18:04:29.097Z,1.55
2019-04-22T18:07:29.513Z,1.67
2019-04-22T18:10:23.776Z,1.50
2019-04-22T18:12:43.820Z,2.33
2019-04-22T18:15:10.060Z,1.60
2019-04-22T18:17:41.629Z,1.62
2019-04-22T18:20:04.364Z,1.45
2019-04-22T18:22:29.341Z,1.70
2019-04-22T18:25:02.148Z,1.30
2019-04-22T18:28:03.851Z,1.07
2019-04-22T18:30:02.236Z,1.50
2019-04-22T18:32:37.148Z,1.22
2019-04-22T18:34:52.924Z,1.30
2019-04-22T18:37:36.729Z,1.20
2019-04-22T18:40:02.028Z,1.32
2019-04-22T18:42:26.779Z,1.20
2019-04-22T18:45:12.761Z,1.12
2019-04-22T18:47:25.301Z,1.20
2019-04-22T18:49:55.416Z,1.30
2019-04-22T18:52:54.470Z,1.40
2019-04-22T18:55:47.125Z,1.40
2019-04-22T18:58:10.207Z,1.47
2019-04-22T19:00:31.574Z,1.40
2019-04-22T19:03:07.129Z,1.50
2019-04-22T19:05:45.331Z,1.82
2019-04-22T19:08:26.088Z,1.62
2019-04-22T19:11:10.049Z,1.30
2019-04-22T19:16:00.053Z,1.65
2019-04-22T19:18:24.575Z,1.50
2019-04-22T19:20:51.336Z,1.90
2019-04-22T19:23:20.729Z,1.37
2019-04-22T19:25:42.396Z,1.82
2019-04-22T19:28:23.858Z,1.60
2019-04-22T19:30:50.735Z,1.40
2019-04-22T19:33:22.280Z,1.95
2019-04-22T19:35:40.455Z,2.00
2019-04-22T19:38:03.379Z,2.00
2019-04-22T19:40:55.443Z,1.75
2019-04-22T19:43:18.702Z,1.87
2019-04-22T19:45:44.443Z,2.10
2019-04-22T19:48:22.148Z,1.80
2019-04-22T19:50:45.077Z,1.80
2019-04-22T19:53:19.565Z,1.85
2019-04-22T19:55:45.138Z,2.22
2019-04-22T19:58:14.691Z,2.02
2019-04-22T20:00:57.684Z,1.67
2019-04-22T20:03:49.651Z,2.00
2019-04-22T20:06:33.549Z,1.92
2019-04-22T20:09:09.143Z,1.82
2019-04-22T20:11:35.227Z,2.22
2019-04-22T20:14:09.080Z,2.02
2019-04-22T20:16:28.508Z,1.98
2019-04-22T20:19:06.941Z,2.08
2019-04-22T20:21:38.781Z,2.25
2019-04-22T20:23:51.449Z,2.10
2019-04-22T20:26:23.011Z,2.10
2019-04-22T20:28:57.675Z,2.27
2019-04-22T20:31:31.831Z,2.00
2019-04-22T20:34:04.674Z,2.20
2019-04-22T20:36:45.016Z,2.30
2019-04-22T20:38:58.125Z,2.40
2019-04-22T20:41:26.210Z,2.20
2019-04-22T20:43:56.630Z,2.25
2019-04-22T20:46:24.162Z,2.50
2019-04-22T20:49:00.168Z,2.47
2019-04-22T20:51:42.352Z,2.40
2019-04-22T20:53:56.603Z,2.30
2019-04-22T20:56:18.679Z,1.92
2019-04-22T20:58:51.723Z,2.40
2019-04-22T21:01:24.306Z,2.15
2019-04-22T21:03:43.183Z,2.17
2019-04-22T21:06:23.279Z,2.50
2019-04-22T21:08:56.001Z,2.22
2019-04-22T21:11:20.299Z,2.22
2019-04-22T21:13:50.500Z,2.80
2019-04-22T21:16:22.379Z,2.30
2019-04-22T21:18:44.612Z,2.22
2019-04-22T21:21:20.373Z,2.40
2019-04-22T21:23:44.968Z,2.22
2019-04-22T21:26:16.698Z,2.08
2019-04-22T21:28:47.588Z,2.50
2019-04-22T21:31:19.118Z,2.47
2019-04-22T21:33:46.910Z,2.05
2019-04-22T21:36:20.376Z,2.25
2019-04-22T21:38:43.448Z,2.55
2019-04-22T21:41:17.736Z,2.15
2019-04-22T21:43:48.125Z,2.92
2019-04-22T21:46:32.420Z,2.10
2019-04-22T21:48:59.821Z,2.30
2019-04-22T21:51:19.176Z,1.92
2019-04-22T21:53:50.475Z,2.12
2019-04-22T21:56:29.064Z,2.65
2019-04-22T21:59:07.818Z,2.22
2019-04-22T22:01:50.044Z,2.30
2019-04-22T22:04:12.676Z,2.17
2019-04-22T22:06:31.132Z,2.50
2019-04-22T22:09:13.451Z,2.27
2019-04-22T22:11:37.110Z,2.17
2019-04-22T22:14:07.549Z,2.58
2019-04-22T22:16:33.541Z,2.33
2019-04-22T22:19:11.121Z,2.45
2019-04-22T22:21:48.134Z,2.30
2019-04-22T22:24:08.954Z,2.40
2019-04-22T22:26:40.033Z,2.20
2019-04-22T22:29:08.853Z,2.20
2019-04-22T22:31:40.134Z,2.17
2019-04-22T22:34:09.472Z,2.77
2019-04-22T22:36:29.557Z,2.25
2019-04-22T22:39:00.448Z,2.58
2019-04-22T22:41:13.979Z,2.00
2019-04-22T22:43:47.073Z,2.12
2019-04-22T22:46:24.686Z,2.40
2019-04-22T22:49:03.199Z,2.00
2019-04-22T22:51:43.048Z,2.87
2019-04-22T22:54:01.538Z,2.43
2019-04-22T22:56:39.498Z,2.27
2019-04-22T22:59:01.840Z,2.80
2019-04-22T23:01:32.126Z,2.20
2019-04-22T23:04:31.176Z,2.40
2019-04-22T23:06:37.241Z,2.70
2019-04-22T23:09:02.532Z,2.27
2019-04-22T23:11:40.572Z,2.20
2019-04-22T23:14:16.618Z,2.35
2019-04-22T23:16:31.574Z,2.30
2019-04-22T23:19:04.439Z,2.63
2019-04-22T23:21:38.804Z,2.63
2019-04-22T23:24:23.580Z,2.50
2019-04-22T23:27:18.573Z,1.93
2019-04-22T23:29:49.463Z,2.43
2019-04-22T23:32:20.114Z,2.10
2019-04-22T23:35:01.901Z,2.47
2019-04-22T23:37:44.115Z,2.30
2019-04-22T23:40:15.837Z,2.03
2019-04-22T23:42:33.516Z,2.67
2019-04-22T23:45:09.506Z,2.30
2019-04-22T23:47:30.926Z,2.08
2019-04-22T23:50:09.509Z,2.47
2019-04-22T23:52:44.838Z,2.53
2019-04-22T23:55:14.343Z,2.30
2019-04-22T23:57:42.122Z,2.70
